<?xml version="1.0" encoding="UTF-8" standalone="no" ?>
<gpx xmlns="http://www.topografix.com/GPX/1/1" xmlns:xsi="http://www.w3.org/2001/XMLSchema-instance" xsi:schemaLocation="http://www.topografix.com/GPX/1/1 http://www.topografix.com/GPX/1/1/gpx.xsd" version="1.1" creator="VisuGPX - https://www.visugpx.com">
  <metadata>
    <name>Marche matinale .  Tamarin - K6O</name>
    <desc><![CDATA[rando ]]></desc>
  </metadata>
  <trk>
    <name><![CDATA[Marche matinale]]></name>
    <trkseg>
      <trkpt lat="43.63038" lon="7.06328">
        <ele>77.4</ele>
        <time>2019-06-06T06:06:22Z</time>
      </trkpt>
      <trkpt lat="43.63041" lon="7.06328">
        <ele>77.4</ele>
        <time>2019-06-06T06:06:28Z</time>
      </trkpt>
      <trkpt lat="43.63042" lon="7.06324">
        <ele>77.4</ele>
        <time>2019-06-06T06:06:31Z</time>
      </trkpt>
      <trkpt lat="43.63044" lon="7.06321">
        <ele>77.5</ele>
        <time>2019-06-06T06:06:34Z</time>
      </trkpt>
      <trkpt lat="43.63046" lon="7.06317">
        <ele>77.5</ele>
        <time>2019-06-06T06:06:38Z</time>
      </trkpt>
      <trkpt lat="43.63048" lon="7.06314">
        <ele>77.5</ele>
        <time>2019-06-06T06:06:41Z</time>
      </trkpt>
      <trkpt lat="43.63051" lon="7.06312">
        <ele>77.6</ele>
        <time>2019-06-06T06:06:43Z</time>
      </trkpt>
      <trkpt lat="43.63055" lon="7.06309">
        <ele>77.6</ele>
        <time>2019-06-06T06:06:45Z</time>
      </trkpt>
      <trkpt lat="43.63058" lon="7.06306">
        <ele>77.4</ele>
        <time>2019-06-06T06:06:46Z</time>
      </trkpt>
      <trkpt lat="43.63061" lon="7.06302">
        <ele>77.4</ele>
        <time>2019-06-06T06:06:47Z</time>
      </trkpt>
      <trkpt lat="43.63063" lon="7.06299">
        <ele>77.3</ele>
        <time>2019-06-06T06:06:48Z</time>
      </trkpt>
      <trkpt lat="43.6306" lon="7.06298">
        <ele>77.3</ele>
        <time>2019-06-06T06:06:56Z</time>
      </trkpt>
      <trkpt lat="43.63057" lon="7.06298">
        <ele>77.3</ele>
        <time>2019-06-06T06:06:58Z</time>
      </trkpt>
      <trkpt lat="43.63054" lon="7.06296">
        <ele>77.3</ele>
        <time>2019-06-06T06:07:00Z</time>
      </trkpt>
      <trkpt lat="43.6305" lon="7.06296">
        <ele>77.2</ele>
        <time>2019-06-06T06:07:02Z</time>
      </trkpt>
      <trkpt lat="43.63047" lon="7.06295">
        <ele>77.2</ele>
        <time>2019-06-06T06:07:04Z</time>
      </trkpt>
      <trkpt lat="43.63042" lon="7.06296">
        <ele>77.2</ele>
        <time>2019-06-06T06:07:06Z</time>
      </trkpt>
      <trkpt lat="43.63039" lon="7.06295">
        <ele>77.2</ele>
        <time>2019-06-06T06:07:08Z</time>
      </trkpt>
      <trkpt lat="43.63035" lon="7.06295">
        <ele>77.1</ele>
        <time>2019-06-06T06:07:12Z</time>
      </trkpt>
      <trkpt lat="43.63033" lon="7.06296">
        <ele>77.1</ele>
        <time>2019-06-06T06:07:14Z</time>
      </trkpt>
      <trkpt lat="43.63029" lon="7.06298">
        <ele>77.1</ele>
        <time>2019-06-06T06:07:17Z</time>
      </trkpt>
      <trkpt lat="43.63025" lon="7.06299">
        <ele>77.1</ele>
        <time>2019-06-06T06:07:20Z</time>
      </trkpt>
      <trkpt lat="43.63022" lon="7.06299">
        <ele>77.1</ele>
        <time>2019-06-06T06:07:22Z</time>
      </trkpt>
      <trkpt lat="43.63019" lon="7.06299">
        <ele>77</ele>
        <time>2019-06-06T06:07:25Z</time>
      </trkpt>
      <trkpt lat="43.63016" lon="7.063">
        <ele>77</ele>
        <time>2019-06-06T06:07:27Z</time>
      </trkpt>
      <trkpt lat="43.63013" lon="7.06302">
        <ele>77</ele>
        <time>2019-06-06T06:07:29Z</time>
      </trkpt>
      <trkpt lat="43.6301" lon="7.06305">
        <ele>77</ele>
        <time>2019-06-06T06:07:31Z</time>
      </trkpt>
      <trkpt lat="43.63007" lon="7.06307">
        <ele>76.9</ele>
        <time>2019-06-06T06:07:33Z</time>
      </trkpt>
      <trkpt lat="43.63004" lon="7.0631">
        <ele>76.9</ele>
        <time>2019-06-06T06:07:38Z</time>
      </trkpt>
      <trkpt lat="43.63001" lon="7.0631">
        <ele>76.9</ele>
        <time>2019-06-06T06:07:40Z</time>
      </trkpt>
      <trkpt lat="43.62999" lon="7.06312">
        <ele>76.8</ele>
        <time>2019-06-06T06:07:43Z</time>
      </trkpt>
      <trkpt lat="43.62996" lon="7.06313">
        <ele>76.8</ele>
        <time>2019-06-06T06:07:45Z</time>
      </trkpt>
      <trkpt lat="43.62994" lon="7.06317">
        <ele>76.7</ele>
        <time>2019-06-06T06:07:48Z</time>
      </trkpt>
      <trkpt lat="43.62992" lon="7.0632">
        <ele>76.7</ele>
        <time>2019-06-06T06:07:50Z</time>
      </trkpt>
      <trkpt lat="43.62989" lon="7.06322">
        <ele>76.7</ele>
        <time>2019-06-06T06:07:52Z</time>
      </trkpt>
      <trkpt lat="43.62985" lon="7.06323">
        <ele>76.6</ele>
        <time>2019-06-06T06:07:55Z</time>
      </trkpt>
      <trkpt lat="43.62983" lon="7.06326">
        <ele>76.6</ele>
        <time>2019-06-06T06:07:57Z</time>
      </trkpt>
      <trkpt lat="43.62981" lon="7.0633">
        <ele>76.5</ele>
        <time>2019-06-06T06:07:59Z</time>
      </trkpt>
      <trkpt lat="43.62979" lon="7.06332">
        <ele>76.5</ele>
        <time>2019-06-06T06:08:01Z</time>
      </trkpt>
      <trkpt lat="43.62976" lon="7.06337">
        <ele>76.5</ele>
        <time>2019-06-06T06:08:05Z</time>
      </trkpt>
      <trkpt lat="43.62975" lon="7.06341">
        <ele>76.4</ele>
        <time>2019-06-06T06:08:07Z</time>
      </trkpt>
      <trkpt lat="43.62972" lon="7.06344">
        <ele>76.4</ele>
        <time>2019-06-06T06:08:10Z</time>
      </trkpt>
      <trkpt lat="43.6297" lon="7.06347">
        <ele>76.4</ele>
        <time>2019-06-06T06:08:13Z</time>
      </trkpt>
      <trkpt lat="43.62966" lon="7.0635">
        <ele>76.3</ele>
        <time>2019-06-06T06:08:15Z</time>
      </trkpt>
      <trkpt lat="43.62964" lon="7.06352">
        <ele>76.3</ele>
        <time>2019-06-06T06:08:17Z</time>
      </trkpt>
      <trkpt lat="43.6296" lon="7.06354">
        <ele>76.3</ele>
        <time>2019-06-06T06:08:19Z</time>
      </trkpt>
      <trkpt lat="43.62957" lon="7.06355">
        <ele>76.2</ele>
        <time>2019-06-06T06:08:21Z</time>
      </trkpt>
      <trkpt lat="43.62955" lon="7.06358">
        <ele>76.2</ele>
        <time>2019-06-06T06:08:23Z</time>
      </trkpt>
      <trkpt lat="43.62952" lon="7.06362">
        <ele>76.2</ele>
        <time>2019-06-06T06:08:25Z</time>
      </trkpt>
      <trkpt lat="43.62949" lon="7.06366">
        <ele>76.1</ele>
        <time>2019-06-06T06:08:27Z</time>
      </trkpt>
      <trkpt lat="43.62945" lon="7.06368">
        <ele>76.1</ele>
        <time>2019-06-06T06:08:30Z</time>
      </trkpt>
      <trkpt lat="43.62942" lon="7.0637">
        <ele>76</ele>
        <time>2019-06-06T06:08:32Z</time>
      </trkpt>
      <trkpt lat="43.62939" lon="7.06372">
        <ele>76</ele>
        <time>2019-06-06T06:08:34Z</time>
      </trkpt>
      <trkpt lat="43.62937" lon="7.06374">
        <ele>76</ele>
        <time>2019-06-06T06:08:37Z</time>
      </trkpt>
      <trkpt lat="43.62935" lon="7.06379">
        <ele>76</ele>
        <time>2019-06-06T06:08:40Z</time>
      </trkpt>
      <trkpt lat="43.62933" lon="7.06383">
        <ele>76</ele>
        <time>2019-06-06T06:08:43Z</time>
      </trkpt>
      <trkpt lat="43.62931" lon="7.06386">
        <ele>76</ele>
        <time>2019-06-06T06:08:45Z</time>
      </trkpt>
      <trkpt lat="43.62927" lon="7.06388">
        <ele>75.9</ele>
        <time>2019-06-06T06:08:47Z</time>
      </trkpt>
      <trkpt lat="43.62924" lon="7.0639">
        <ele>75.9</ele>
        <time>2019-06-06T06:08:50Z</time>
      </trkpt>
      <trkpt lat="43.62921" lon="7.06392">
        <ele>75.9</ele>
        <time>2019-06-06T06:08:52Z</time>
      </trkpt>
      <trkpt lat="43.62918" lon="7.06394">
        <ele>75.9</ele>
        <time>2019-06-06T06:08:55Z</time>
      </trkpt>
      <trkpt lat="43.62916" lon="7.06399">
        <ele>75.9</ele>
        <time>2019-06-06T06:08:57Z</time>
      </trkpt>
      <trkpt lat="43.62915" lon="7.06402">
        <ele>75.8</ele>
        <time>2019-06-06T06:08:58Z</time>
      </trkpt>
      <trkpt lat="43.62913" lon="7.06407">
        <ele>75.8</ele>
        <time>2019-06-06T06:09:00Z</time>
      </trkpt>
      <trkpt lat="43.6291" lon="7.06408">
        <ele>75.8</ele>
        <time>2019-06-06T06:09:03Z</time>
      </trkpt>
      <trkpt lat="43.62906" lon="7.06409">
        <ele>75.8</ele>
        <time>2019-06-06T06:09:06Z</time>
      </trkpt>
      <trkpt lat="43.62903" lon="7.06411">
        <ele>75.8</ele>
        <time>2019-06-06T06:09:08Z</time>
      </trkpt>
      <trkpt lat="43.629" lon="7.06414">
        <ele>75.7</ele>
        <time>2019-06-06T06:09:12Z</time>
      </trkpt>
      <trkpt lat="43.62897" lon="7.06417">
        <ele>75.7</ele>
        <time>2019-06-06T06:09:15Z</time>
      </trkpt>
      <trkpt lat="43.62895" lon="7.0642">
        <ele>75.7</ele>
        <time>2019-06-06T06:09:17Z</time>
      </trkpt>
      <trkpt lat="43.62892" lon="7.06424">
        <ele>75.7</ele>
        <time>2019-06-06T06:09:19Z</time>
      </trkpt>
      <trkpt lat="43.62888" lon="7.06425">
        <ele>75.7</ele>
        <time>2019-06-06T06:09:21Z</time>
      </trkpt>
      <trkpt lat="43.62885" lon="7.06426">
        <ele>75.6</ele>
        <time>2019-06-06T06:09:23Z</time>
      </trkpt>
      <trkpt lat="43.62882" lon="7.06429">
        <ele>75.6</ele>
        <time>2019-06-06T06:09:25Z</time>
      </trkpt>
      <trkpt lat="43.6288" lon="7.06432">
        <ele>75.6</ele>
        <time>2019-06-06T06:09:27Z</time>
      </trkpt>
      <trkpt lat="43.62876" lon="7.06435">
        <ele>75.6</ele>
        <time>2019-06-06T06:09:30Z</time>
      </trkpt>
      <trkpt lat="43.62873" lon="7.06436">
        <ele>75.6</ele>
        <time>2019-06-06T06:09:32Z</time>
      </trkpt>
      <trkpt lat="43.62871" lon="7.06439">
        <ele>75.6</ele>
        <time>2019-06-06T06:09:34Z</time>
      </trkpt>
      <trkpt lat="43.62867" lon="7.06441">
        <ele>75.5</ele>
        <time>2019-06-06T06:09:36Z</time>
      </trkpt>
      <trkpt lat="43.62862" lon="7.06443">
        <ele>75.5</ele>
        <time>2019-06-06T06:09:38Z</time>
      </trkpt>
      <trkpt lat="43.62859" lon="7.06445">
        <ele>75.5</ele>
        <time>2019-06-06T06:09:40Z</time>
      </trkpt>
      <trkpt lat="43.62857" lon="7.06448">
        <ele>75.5</ele>
        <time>2019-06-06T06:09:42Z</time>
      </trkpt>
      <trkpt lat="43.62854" lon="7.06451">
        <ele>75.5</ele>
        <time>2019-06-06T06:09:45Z</time>
      </trkpt>
      <trkpt lat="43.62852" lon="7.06454">
        <ele>75.5</ele>
        <time>2019-06-06T06:09:47Z</time>
      </trkpt>
      <trkpt lat="43.62851" lon="7.06458">
        <ele>75.4</ele>
        <time>2019-06-06T06:09:49Z</time>
      </trkpt>
      <trkpt lat="43.62848" lon="7.06462">
        <ele>75.4</ele>
        <time>2019-06-06T06:09:51Z</time>
      </trkpt>
      <trkpt lat="43.62847" lon="7.06465">
        <ele>75.4</ele>
        <time>2019-06-06T06:09:53Z</time>
      </trkpt>
      <trkpt lat="43.62844" lon="7.06468">
        <ele>75.4</ele>
        <time>2019-06-06T06:09:55Z</time>
      </trkpt>
      <trkpt lat="43.62843" lon="7.06471">
        <ele>75.4</ele>
        <time>2019-06-06T06:09:58Z</time>
      </trkpt>
      <trkpt lat="43.62842" lon="7.06475">
        <ele>75.4</ele>
        <time>2019-06-06T06:10:01Z</time>
      </trkpt>
      <trkpt lat="43.62839" lon="7.06478">
        <ele>75.4</ele>
        <time>2019-06-06T06:10:03Z</time>
      </trkpt>
      <trkpt lat="43.62837" lon="7.06482">
        <ele>75.4</ele>
        <time>2019-06-06T06:10:06Z</time>
      </trkpt>
      <trkpt lat="43.62835" lon="7.06485">
        <ele>75.3</ele>
        <time>2019-06-06T06:10:08Z</time>
      </trkpt>
      <trkpt lat="43.62833" lon="7.06489">
        <ele>75.3</ele>
        <time>2019-06-06T06:10:10Z</time>
      </trkpt>
      <trkpt lat="43.62832" lon="7.06493">
        <ele>75.3</ele>
        <time>2019-06-06T06:10:12Z</time>
      </trkpt>
      <trkpt lat="43.6283" lon="7.06497">
        <ele>75.3</ele>
        <time>2019-06-06T06:10:14Z</time>
      </trkpt>
      <trkpt lat="43.6283" lon="7.06501">
        <ele>75.3</ele>
        <time>2019-06-06T06:10:16Z</time>
      </trkpt>
      <trkpt lat="43.62827" lon="7.06505">
        <ele>75.3</ele>
        <time>2019-06-06T06:10:19Z</time>
      </trkpt>
      <trkpt lat="43.62825" lon="7.06507">
        <ele>75.3</ele>
        <time>2019-06-06T06:10:22Z</time>
      </trkpt>
      <trkpt lat="43.62823" lon="7.0651">
        <ele>75.3</ele>
        <time>2019-06-06T06:10:25Z</time>
      </trkpt>
      <trkpt lat="43.6282" lon="7.06513">
        <ele>75.3</ele>
        <time>2019-06-06T06:10:28Z</time>
      </trkpt>
      <trkpt lat="43.62818" lon="7.06517">
        <ele>75.3</ele>
        <time>2019-06-06T06:10:31Z</time>
      </trkpt>
      <trkpt lat="43.62816" lon="7.0652">
        <ele>75.3</ele>
        <time>2019-06-06T06:10:33Z</time>
      </trkpt>
      <trkpt lat="43.62813" lon="7.06523">
        <ele>75.3</ele>
        <time>2019-06-06T06:10:35Z</time>
      </trkpt>
      <trkpt lat="43.62811" lon="7.06528">
        <ele>75.3</ele>
        <time>2019-06-06T06:10:37Z</time>
      </trkpt>
      <trkpt lat="43.62809" lon="7.0653">
        <ele>75.3</ele>
        <time>2019-06-06T06:10:39Z</time>
      </trkpt>
      <trkpt lat="43.62806" lon="7.06534">
        <ele>75.3</ele>
        <time>2019-06-06T06:10:41Z</time>
      </trkpt>
      <trkpt lat="43.62805" lon="7.06539">
        <ele>75.3</ele>
        <time>2019-06-06T06:10:44Z</time>
      </trkpt>
      <trkpt lat="43.62803" lon="7.06543">
        <ele>75.3</ele>
        <time>2019-06-06T06:10:47Z</time>
      </trkpt>
      <trkpt lat="43.62801" lon="7.06546">
        <ele>75.3</ele>
        <time>2019-06-06T06:10:50Z</time>
      </trkpt>
      <trkpt lat="43.62799" lon="7.06549">
        <ele>75.3</ele>
        <time>2019-06-06T06:10:52Z</time>
      </trkpt>
      <trkpt lat="43.62798" lon="7.06553">
        <ele>75.2</ele>
        <time>2019-06-06T06:10:54Z</time>
      </trkpt>
      <trkpt lat="43.62798" lon="7.06558">
        <ele>75.2</ele>
        <time>2019-06-06T06:10:57Z</time>
      </trkpt>
      <trkpt lat="43.62796" lon="7.06563">
        <ele>75.1</ele>
        <time>2019-06-06T06:11:00Z</time>
      </trkpt>
      <trkpt lat="43.62794" lon="7.06567">
        <ele>75</ele>
        <time>2019-06-06T06:11:02Z</time>
      </trkpt>
      <trkpt lat="43.62792" lon="7.0657">
        <ele>75</ele>
        <time>2019-06-06T06:11:05Z</time>
      </trkpt>
      <trkpt lat="43.6279" lon="7.06575">
        <ele>74.9</ele>
        <time>2019-06-06T06:11:09Z</time>
      </trkpt>
      <trkpt lat="43.62787" lon="7.06578">
        <ele>74.8</ele>
        <time>2019-06-06T06:11:11Z</time>
      </trkpt>
      <trkpt lat="43.62785" lon="7.06582">
        <ele>74.7</ele>
        <time>2019-06-06T06:11:13Z</time>
      </trkpt>
      <trkpt lat="43.62784" lon="7.06587">
        <ele>74.6</ele>
        <time>2019-06-06T06:11:15Z</time>
      </trkpt>
      <trkpt lat="43.62781" lon="7.06591">
        <ele>74.5</ele>
        <time>2019-06-06T06:11:18Z</time>
      </trkpt>
      <trkpt lat="43.62778" lon="7.06595">
        <ele>74.4</ele>
        <time>2019-06-06T06:11:20Z</time>
      </trkpt>
      <trkpt lat="43.62776" lon="7.06597">
        <ele>74.3</ele>
        <time>2019-06-06T06:11:22Z</time>
      </trkpt>
      <trkpt lat="43.62773" lon="7.06599">
        <ele>74.3</ele>
        <time>2019-06-06T06:11:25Z</time>
      </trkpt>
      <trkpt lat="43.6277" lon="7.06601">
        <ele>74.2</ele>
        <time>2019-06-06T06:11:28Z</time>
      </trkpt>
      <trkpt lat="43.62767" lon="7.06603">
        <ele>74.1</ele>
        <time>2019-06-06T06:11:30Z</time>
      </trkpt>
      <trkpt lat="43.62764" lon="7.06604">
        <ele>74</ele>
        <time>2019-06-06T06:11:33Z</time>
      </trkpt>
      <trkpt lat="43.62761" lon="7.06603">
        <ele>73.9</ele>
        <time>2019-06-06T06:11:36Z</time>
      </trkpt>
      <trkpt lat="43.62757" lon="7.06601">
        <ele>73.8</ele>
        <time>2019-06-06T06:11:39Z</time>
      </trkpt>
      <trkpt lat="43.62755" lon="7.06598">
        <ele>73.7</ele>
        <time>2019-06-06T06:11:41Z</time>
      </trkpt>
      <trkpt lat="43.62753" lon="7.06595">
        <ele>73.6</ele>
        <time>2019-06-06T06:11:43Z</time>
      </trkpt>
      <trkpt lat="43.6275" lon="7.06593">
        <ele>73.6</ele>
        <time>2019-06-06T06:11:46Z</time>
      </trkpt>
      <trkpt lat="43.62746" lon="7.0659">
        <ele>73.5</ele>
        <time>2019-06-06T06:11:49Z</time>
      </trkpt>
      <trkpt lat="43.62743" lon="7.06588">
        <ele>73.4</ele>
        <time>2019-06-06T06:11:51Z</time>
      </trkpt>
      <trkpt lat="43.6274" lon="7.06585">
        <ele>73.3</ele>
        <time>2019-06-06T06:11:54Z</time>
      </trkpt>
      <trkpt lat="43.62738" lon="7.06582">
        <ele>73.3</ele>
        <time>2019-06-06T06:11:56Z</time>
      </trkpt>
      <trkpt lat="43.62735" lon="7.06579">
        <ele>73.2</ele>
        <time>2019-06-06T06:11:59Z</time>
      </trkpt>
      <trkpt lat="43.62732" lon="7.0658">
        <ele>73.1</ele>
        <time>2019-06-06T06:12:02Z</time>
      </trkpt>
      <trkpt lat="43.6273" lon="7.06578">
        <ele>73.1</ele>
        <time>2019-06-06T06:12:04Z</time>
      </trkpt>
      <trkpt lat="43.62727" lon="7.06575">
        <ele>73</ele>
        <time>2019-06-06T06:12:07Z</time>
      </trkpt>
      <trkpt lat="43.62722" lon="7.06573">
        <ele>72.9</ele>
        <time>2019-06-06T06:12:10Z</time>
      </trkpt>
      <trkpt lat="43.62719" lon="7.06573">
        <ele>72.8</ele>
        <time>2019-06-06T06:12:14Z</time>
      </trkpt>
      <trkpt lat="43.62715" lon="7.06574">
        <ele>72.7</ele>
        <time>2019-06-06T06:12:17Z</time>
      </trkpt>
      <trkpt lat="43.6271" lon="7.06573">
        <ele>72.5</ele>
        <time>2019-06-06T06:12:19Z</time>
      </trkpt>
      <trkpt lat="43.62706" lon="7.06573">
        <ele>72.3</ele>
        <time>2019-06-06T06:12:22Z</time>
      </trkpt>
      <trkpt lat="43.62703" lon="7.06574">
        <ele>72.2</ele>
        <time>2019-06-06T06:12:25Z</time>
      </trkpt>
      <trkpt lat="43.627" lon="7.06575">
        <ele>72</ele>
        <time>2019-06-06T06:12:27Z</time>
      </trkpt>
      <trkpt lat="43.62695" lon="7.06574">
        <ele>71.8</ele>
        <time>2019-06-06T06:12:30Z</time>
      </trkpt>
      <trkpt lat="43.62691" lon="7.06574">
        <ele>71.6</ele>
        <time>2019-06-06T06:12:32Z</time>
      </trkpt>
      <trkpt lat="43.62688" lon="7.06574">
        <ele>71.3</ele>
        <time>2019-06-06T06:12:35Z</time>
      </trkpt>
      <trkpt lat="43.62685" lon="7.06574">
        <ele>71.2</ele>
        <time>2019-06-06T06:12:37Z</time>
      </trkpt>
      <trkpt lat="43.62682" lon="7.06575">
        <ele>71</ele>
        <time>2019-06-06T06:12:39Z</time>
      </trkpt>
      <trkpt lat="43.6268" lon="7.06576">
        <ele>70.8</ele>
        <time>2019-06-06T06:12:41Z</time>
      </trkpt>
      <trkpt lat="43.62676" lon="7.06576">
        <ele>70.6</ele>
        <time>2019-06-06T06:12:45Z</time>
      </trkpt>
      <trkpt lat="43.62672" lon="7.06577">
        <ele>70.4</ele>
        <time>2019-06-06T06:12:47Z</time>
      </trkpt>
      <trkpt lat="43.62668" lon="7.06576">
        <ele>70.2</ele>
        <time>2019-06-06T06:12:50Z</time>
      </trkpt>
      <trkpt lat="43.62665" lon="7.06576">
        <ele>70</ele>
        <time>2019-06-06T06:12:52Z</time>
      </trkpt>
      <trkpt lat="43.62662" lon="7.06576">
        <ele>69.8</ele>
        <time>2019-06-06T06:12:55Z</time>
      </trkpt>
      <trkpt lat="43.62658" lon="7.06575">
        <ele>69.5</ele>
        <time>2019-06-06T06:12:58Z</time>
      </trkpt>
      <trkpt lat="43.62654" lon="7.06575">
        <ele>69.2</ele>
        <time>2019-06-06T06:13:01Z</time>
      </trkpt>
      <trkpt lat="43.62651" lon="7.06575">
        <ele>68.9</ele>
        <time>2019-06-06T06:13:03Z</time>
      </trkpt>
      <trkpt lat="43.62648" lon="7.06575">
        <ele>68.8</ele>
        <time>2019-06-06T06:13:05Z</time>
      </trkpt>
      <trkpt lat="43.62645" lon="7.06573">
        <ele>68.7</ele>
        <time>2019-06-06T06:13:07Z</time>
      </trkpt>
      <trkpt lat="43.62642" lon="7.06572">
        <ele>68.5</ele>
        <time>2019-06-06T06:13:10Z</time>
      </trkpt>
      <trkpt lat="43.62639" lon="7.0657">
        <ele>68.4</ele>
        <time>2019-06-06T06:13:12Z</time>
      </trkpt>
      <trkpt lat="43.62636" lon="7.06568">
        <ele>68.3</ele>
        <time>2019-06-06T06:13:13Z</time>
      </trkpt>
      <trkpt lat="43.62633" lon="7.06565">
        <ele>68.1</ele>
        <time>2019-06-06T06:13:15Z</time>
      </trkpt>
      <trkpt lat="43.62631" lon="7.06562">
        <ele>68</ele>
        <time>2019-06-06T06:13:17Z</time>
      </trkpt>
      <trkpt lat="43.62628" lon="7.06558">
        <ele>67.9</ele>
        <time>2019-06-06T06:13:19Z</time>
      </trkpt>
      <trkpt lat="43.62627" lon="7.06553">
        <ele>67.8</ele>
        <time>2019-06-06T06:13:22Z</time>
      </trkpt>
      <trkpt lat="43.62625" lon="7.06557">
        <ele>67.8</ele>
        <time>2019-06-06T06:13:31Z</time>
      </trkpt>
      <trkpt lat="43.62625" lon="7.06561">
        <ele>67.7</ele>
        <time>2019-06-06T06:13:34Z</time>
      </trkpt>
      <trkpt lat="43.62625" lon="7.06565">
        <ele>67.3</ele>
        <time>2019-06-06T06:13:36Z</time>
      </trkpt>
      <trkpt lat="43.62624" lon="7.06569">
        <ele>67.7</ele>
        <time>2019-06-06T06:13:39Z</time>
      </trkpt>
      <trkpt lat="43.62625" lon="7.06573">
        <ele>68.1</ele>
        <time>2019-06-06T06:13:43Z</time>
      </trkpt>
      <trkpt lat="43.62626" lon="7.06578">
        <ele>68.4</ele>
        <time>2019-06-06T06:13:45Z</time>
      </trkpt>
      <trkpt lat="43.62627" lon="7.06584">
        <ele>68.9</ele>
        <time>2019-06-06T06:13:48Z</time>
      </trkpt>
      <trkpt lat="43.62628" lon="7.06588">
        <ele>69.1</ele>
        <time>2019-06-06T06:13:51Z</time>
      </trkpt>
      <trkpt lat="43.62629" lon="7.06593">
        <ele>69.3</ele>
        <time>2019-06-06T06:13:55Z</time>
      </trkpt>
      <trkpt lat="43.62631" lon="7.06597">
        <ele>69.5</ele>
        <time>2019-06-06T06:13:59Z</time>
      </trkpt>
      <trkpt lat="43.62633" lon="7.06602">
        <ele>69.5</ele>
        <time>2019-06-06T06:14:02Z</time>
      </trkpt>
      <trkpt lat="43.62635" lon="7.06605">
        <ele>69.6</ele>
        <time>2019-06-06T06:14:04Z</time>
      </trkpt>
      <trkpt lat="43.62636" lon="7.06612">
        <ele>69.6</ele>
        <time>2019-06-06T06:14:06Z</time>
      </trkpt>
      <trkpt lat="43.62637" lon="7.06616">
        <ele>69.6</ele>
        <time>2019-06-06T06:14:07Z</time>
      </trkpt>
      <trkpt lat="43.62637" lon="7.06622">
        <ele>69.6</ele>
        <time>2019-06-06T06:14:09Z</time>
      </trkpt>
      <trkpt lat="43.62638" lon="7.06627">
        <ele>69.6</ele>
        <time>2019-06-06T06:14:11Z</time>
      </trkpt>
      <trkpt lat="43.62638" lon="7.06632">
        <ele>69.7</ele>
        <time>2019-06-06T06:14:13Z</time>
      </trkpt>
      <trkpt lat="43.62638" lon="7.06639">
        <ele>69.8</ele>
        <time>2019-06-06T06:14:15Z</time>
      </trkpt>
      <trkpt lat="43.62639" lon="7.06644">
        <ele>69.9</ele>
        <time>2019-06-06T06:14:17Z</time>
      </trkpt>
      <trkpt lat="43.6264" lon="7.06648">
        <ele>69.9</ele>
        <time>2019-06-06T06:14:18Z</time>
      </trkpt>
      <trkpt lat="43.62641" lon="7.06654">
        <ele>70.1</ele>
        <time>2019-06-06T06:14:20Z</time>
      </trkpt>
      <trkpt lat="43.62642" lon="7.06659">
        <ele>70.2</ele>
        <time>2019-06-06T06:14:22Z</time>
      </trkpt>
      <trkpt lat="43.62643" lon="7.06663">
        <ele>70.3</ele>
        <time>2019-06-06T06:14:24Z</time>
      </trkpt>
      <trkpt lat="43.62641" lon="7.06667">
        <ele>70.4</ele>
        <time>2019-06-06T06:14:26Z</time>
      </trkpt>
      <trkpt lat="43.6264" lon="7.06671">
        <ele>70.5</ele>
        <time>2019-06-06T06:14:29Z</time>
      </trkpt>
      <trkpt lat="43.62639" lon="7.06675">
        <ele>70.6</ele>
        <time>2019-06-06T06:14:33Z</time>
      </trkpt>
      <trkpt lat="43.62639" lon="7.06681">
        <ele>70.8</ele>
        <time>2019-06-06T06:14:37Z</time>
      </trkpt>
      <trkpt lat="43.62639" lon="7.06688">
        <ele>71</ele>
        <time>2019-06-06T06:14:40Z</time>
      </trkpt>
      <trkpt lat="43.62639" lon="7.06693">
        <ele>71.1</ele>
        <time>2019-06-06T06:14:42Z</time>
      </trkpt>
      <trkpt lat="43.62637" lon="7.06698">
        <ele>71.3</ele>
        <time>2019-06-06T06:14:44Z</time>
      </trkpt>
      <trkpt lat="43.62637" lon="7.06703">
        <ele>71.4</ele>
        <time>2019-06-06T06:14:46Z</time>
      </trkpt>
      <trkpt lat="43.62638" lon="7.06708">
        <ele>71.5</ele>
        <time>2019-06-06T06:14:49Z</time>
      </trkpt>
      <trkpt lat="43.62637" lon="7.06712">
        <ele>71.7</ele>
        <time>2019-06-06T06:14:51Z</time>
      </trkpt>
      <trkpt lat="43.62634" lon="7.0671">
        <ele>71.8</ele>
        <time>2019-06-06T06:14:57Z</time>
      </trkpt>
      <trkpt lat="43.62633" lon="7.06706">
        <ele>71.9</ele>
        <time>2019-06-06T06:15:00Z</time>
      </trkpt>
      <trkpt lat="43.62631" lon="7.06703">
        <ele>72.1</ele>
        <time>2019-06-06T06:15:04Z</time>
      </trkpt>
      <trkpt lat="43.62628" lon="7.06701">
        <ele>72.8</ele>
        <time>2019-06-06T06:15:07Z</time>
      </trkpt>
      <trkpt lat="43.62626" lon="7.06698">
        <ele>72.9</ele>
        <time>2019-06-06T06:15:11Z</time>
      </trkpt>
      <trkpt lat="43.62624" lon="7.06696">
        <ele>73</ele>
        <time>2019-06-06T06:15:16Z</time>
      </trkpt>
      <trkpt lat="43.62623" lon="7.06692">
        <ele>73.2</ele>
        <time>2019-06-06T06:15:19Z</time>
      </trkpt>
      <trkpt lat="43.62623" lon="7.06687">
        <ele>73.3</ele>
        <time>2019-06-06T06:15:22Z</time>
      </trkpt>
      <trkpt lat="43.6262" lon="7.06685">
        <ele>73.4</ele>
        <time>2019-06-06T06:15:30Z</time>
      </trkpt>
      <trkpt lat="43.62619" lon="7.06688">
        <ele>73.4</ele>
        <time>2019-06-06T06:15:36Z</time>
      </trkpt>
      <trkpt lat="43.62618" lon="7.06693">
        <ele>73.5</ele>
        <time>2019-06-06T06:15:40Z</time>
      </trkpt>
      <trkpt lat="43.62615" lon="7.06695">
        <ele>73.6</ele>
        <time>2019-06-06T06:15:45Z</time>
      </trkpt>
      <trkpt lat="43.62613" lon="7.06699">
        <ele>73.6</ele>
        <time>2019-06-06T06:15:50Z</time>
      </trkpt>
      <trkpt lat="43.62612" lon="7.06703">
        <ele>73.6</ele>
        <time>2019-06-06T06:15:53Z</time>
      </trkpt>
      <trkpt lat="43.62611" lon="7.06707">
        <ele>74</ele>
        <time>2019-06-06T06:15:56Z</time>
      </trkpt>
      <trkpt lat="43.62608" lon="7.0671">
        <ele>74.6</ele>
        <time>2019-06-06T06:16:00Z</time>
      </trkpt>
      <trkpt lat="43.62605" lon="7.06712">
        <ele>75.1</ele>
        <time>2019-06-06T06:16:02Z</time>
      </trkpt>
      <trkpt lat="43.62603" lon="7.06709">
        <ele>75.5</ele>
        <time>2019-06-06T06:16:06Z</time>
      </trkpt>
      <trkpt lat="43.626" lon="7.0671">
        <ele>75.8</ele>
        <time>2019-06-06T06:16:09Z</time>
      </trkpt>
      <trkpt lat="43.62596" lon="7.06708">
        <ele>76.3</ele>
        <time>2019-06-06T06:16:12Z</time>
      </trkpt>
      <trkpt lat="43.62594" lon="7.06706">
        <ele>76.6</ele>
        <time>2019-06-06T06:16:15Z</time>
      </trkpt>
      <trkpt lat="43.62592" lon="7.06703">
        <ele>76.9</ele>
        <time>2019-06-06T06:16:19Z</time>
      </trkpt>
      <trkpt lat="43.6259" lon="7.067">
        <ele>77.2</ele>
        <time>2019-06-06T06:16:22Z</time>
      </trkpt>
      <trkpt lat="43.62588" lon="7.06696">
        <ele>77.6</ele>
        <time>2019-06-06T06:16:25Z</time>
      </trkpt>
      <trkpt lat="43.62586" lon="7.06693">
        <ele>77.9</ele>
        <time>2019-06-06T06:16:28Z</time>
      </trkpt>
      <trkpt lat="43.62583" lon="7.06692">
        <ele>78.3</ele>
        <time>2019-06-06T06:16:32Z</time>
      </trkpt>
      <trkpt lat="43.6258" lon="7.06689">
        <ele>78.7</ele>
        <time>2019-06-06T06:16:34Z</time>
      </trkpt>
      <trkpt lat="43.62578" lon="7.06686">
        <ele>79</ele>
        <time>2019-06-06T06:16:38Z</time>
      </trkpt>
      <trkpt lat="43.62575" lon="7.06687">
        <ele>79.3</ele>
        <time>2019-06-06T06:16:40Z</time>
      </trkpt>
      <trkpt lat="43.62572" lon="7.06684">
        <ele>79.7</ele>
        <time>2019-06-06T06:16:44Z</time>
      </trkpt>
      <trkpt lat="43.62569" lon="7.06683">
        <ele>80.1</ele>
        <time>2019-06-06T06:16:47Z</time>
      </trkpt>
      <trkpt lat="43.62566" lon="7.06682">
        <ele>80.5</ele>
        <time>2019-06-06T06:16:50Z</time>
      </trkpt>
      <trkpt lat="43.62562" lon="7.06682">
        <ele>80.9</ele>
        <time>2019-06-06T06:16:53Z</time>
      </trkpt>
      <trkpt lat="43.62558" lon="7.06683">
        <ele>81.3</ele>
        <time>2019-06-06T06:16:56Z</time>
      </trkpt>
      <trkpt lat="43.62554" lon="7.06684">
        <ele>81.8</ele>
        <time>2019-06-06T06:17:00Z</time>
      </trkpt>
      <trkpt lat="43.62551" lon="7.06684">
        <ele>82.1</ele>
        <time>2019-06-06T06:17:03Z</time>
      </trkpt>
      <trkpt lat="43.62548" lon="7.06685">
        <ele>82.4</ele>
        <time>2019-06-06T06:17:06Z</time>
      </trkpt>
      <trkpt lat="43.62545" lon="7.06684">
        <ele>82.6</ele>
        <time>2019-06-06T06:17:09Z</time>
      </trkpt>
      <trkpt lat="43.62541" lon="7.06685">
        <ele>83</ele>
        <time>2019-06-06T06:17:12Z</time>
      </trkpt>
      <trkpt lat="43.62538" lon="7.06686">
        <ele>83.3</ele>
        <time>2019-06-06T06:17:14Z</time>
      </trkpt>
      <trkpt lat="43.62535" lon="7.06686">
        <ele>83.6</ele>
        <time>2019-06-06T06:17:15Z</time>
      </trkpt>
      <trkpt lat="43.62531" lon="7.06688">
        <ele>84</ele>
        <time>2019-06-06T06:17:17Z</time>
      </trkpt>
      <trkpt lat="43.62528" lon="7.0669">
        <ele>84.3</ele>
        <time>2019-06-06T06:17:19Z</time>
      </trkpt>
      <trkpt lat="43.62526" lon="7.0669">
        <ele>84.6</ele>
        <time>2019-06-06T06:17:21Z</time>
      </trkpt>
      <trkpt lat="43.62522" lon="7.06691">
        <ele>84.9</ele>
        <time>2019-06-06T06:17:23Z</time>
      </trkpt>
      <trkpt lat="43.62519" lon="7.06692">
        <ele>85.1</ele>
        <time>2019-06-06T06:17:25Z</time>
      </trkpt>
      <trkpt lat="43.62517" lon="7.06695">
        <ele>85.4</ele>
        <time>2019-06-06T06:17:28Z</time>
      </trkpt>
      <trkpt lat="43.62515" lon="7.06698">
        <ele>86</ele>
        <time>2019-06-06T06:17:30Z</time>
      </trkpt>
      <trkpt lat="43.62513" lon="7.06701">
        <ele>86.5</ele>
        <time>2019-06-06T06:17:32Z</time>
      </trkpt>
      <trkpt lat="43.62511" lon="7.06704">
        <ele>87</ele>
        <time>2019-06-06T06:17:35Z</time>
      </trkpt>
      <trkpt lat="43.6251" lon="7.06708">
        <ele>87.1</ele>
        <time>2019-06-06T06:17:37Z</time>
      </trkpt>
      <trkpt lat="43.62512" lon="7.06715">
        <ele>86.8</ele>
        <time>2019-06-06T06:17:39Z</time>
      </trkpt>
      <trkpt lat="43.62512" lon="7.06719">
        <ele>86.8</ele>
        <time>2019-06-06T06:17:41Z</time>
      </trkpt>
      <trkpt lat="43.62513" lon="7.06724">
        <ele>86.8</ele>
        <time>2019-06-06T06:17:43Z</time>
      </trkpt>
      <trkpt lat="43.62514" lon="7.0673">
        <ele>86.7</ele>
        <time>2019-06-06T06:17:45Z</time>
      </trkpt>
      <trkpt lat="43.62512" lon="7.06744">
        <ele>86.3</ele>
        <time>2019-06-06T06:17:53Z</time>
      </trkpt>
      <trkpt lat="43.62511" lon="7.06748">
        <ele>86.6</ele>
        <time>2019-06-06T06:17:56Z</time>
      </trkpt>
    </trkseg>
  </trk>
</gpx>